createdAt,value
2022-07-27T00:01:54.330Z,12.67
2022-07-27T00:04:21.863Z,12.66
2022-07-27T00:06:50.713Z,12.69
2022-07-27T00:09:18.428Z,12.57
2022-07-27T00:11:45.940Z,12.63
2022-07-27T00:14:13.559Z,12.63
2022-07-27T00:16:41.266Z,12.57
2022-07-27T00:19:09.584Z,12.57
2022-07-27T00:21:44.582Z,12.54
2022-07-27T00:24:15.150Z,12.49
2022-07-27T00:26:42.773Z,12.48
2022-07-27T00:29:10.424Z,12.46
2022-07-27T00:31:38.241Z,12.49
2022-07-27T00:34:05.730Z,12.41
2022-07-27T00:36:33.198Z,12.54
2022-07-27T00:39:00.771Z,12.48
2022-07-27T00:41:29.578Z,12.45
2022-07-27T00:43:59.465Z,12.41
2022-07-27T00:46:28.475Z,12.42
2022-07-27T00:48:56.280Z,12.34
2022-07-27T00:51:25.066Z,12.29
2022-07-27T00:53:54.020Z,12.30
2022-07-27T00:56:22.117Z,12.35
2022-07-27T00:58:53.314Z,12.28
2022-07-27T01:01:21.343Z,12.21
2022-07-27T01:03:49.184Z,12.28
2022-07-27T01:06:26.760Z,12.29
2022-07-27T01:09:15.828Z,12.10
2022-07-27T01:11:43.641Z,12.12
2022-07-27T01:14:13.987Z,12.22
2022-07-27T01:16:41.815Z,12.26
2022-07-27T01:19:11.365Z,12.18
2022-07-27T01:21:40.423Z,12.11
2022-07-27T01:24:08.573Z,12.16
2022-07-27T01:26:36.580Z,12.24
2022-07-27T01:29:04.572Z,12.12
2022-07-27T01:31:32.649Z,12.14
2022-07-27T01:34:00.497Z,12.10
2022-07-27T01:36:27.972Z,12.01
2022-07-27T01:38:57.953Z,12.00
2022-07-27T01:41:26.484Z,11.95
2022-07-27T01:43:54.130Z,12.02
2022-07-27T01:46:21.685Z,11.97
2022-07-27T01:48:49.230Z,11.99
2022-07-27T01:51:16.804Z,11.95
2022-07-27T01:53:44.261Z,12.00
2022-07-27T01:56:14.126Z,11.96
2022-07-27T01:58:43.096Z,11.86
2022-07-27T02:01:11.081Z,11.95
2022-07-27T02:03:38.637Z,11.94
2022-07-27T02:06:06.785Z,11.74
2022-07-27T02:08:35.005Z,11.76
2022-07-27T02:11:21.453Z,11.71
2022-07-27T02:13:50.757Z,11.81
2022-07-27T02:16:19.945Z,11.77
2022-07-27T02:18:48.892Z,11.75
2022-07-27T02:21:16.773Z,11.67
2022-07-27T02:23:44.542Z,11.67
2022-07-27T02:26:12.303Z,11.61
2022-07-27T02:28:39.770Z,11.54
2022-07-27T02:31:08.651Z,11.54
2022-07-27T02:33:36.102Z,11.49
2022-07-27T02:36:03.699Z,11.53
2022-07-27T02:38:31.243Z,11.42
2022-07-27T02:40:58.761Z,11.47
2022-07-27T02:43:26.234Z,11.40
2022-07-27T02:45:53.746Z,11.45
2022-07-27T02:48:23.116Z,11.40
2022-07-27T02:50:50.662Z,11.40
2022-07-27T02:53:18.260Z,11.28
2022-07-27T02:55:45.846Z,11.35
2022-07-27T02:58:13.298Z,11.37
2022-07-27T03:00:40.753Z,11.28
2022-07-27T03:03:08.248Z,11.27
2022-07-27T03:05:37.088Z,11.20
2022-07-27T03:08:04.981Z,11.16
2022-07-27T03:10:32.904Z,11.18
2022-07-27T03:13:00.403Z,11.06
2022-07-27T03:15:29.447Z,11.10
2022-07-27T03:17:56.969Z,11.14
2022-07-27T03:20:25.041Z,11.10
2022-07-27T03:22:54.408Z,10.93
2022-07-27T03:25:21.909Z,10.96
2022-07-27T03:27:49.399Z,10.92
2022-07-27T03:30:17.573Z,10.89
2022-07-27T03:32:45.140Z,10.85
2022-07-27T03:35:12.926Z,10.84
2022-07-27T03:37:40.891Z,10.76
2022-07-27T03:40:11.327Z,10.76
2022-07-27T03:42:39.050Z,10.65
2022-07-27T03:45:08.375Z,10.64
2022-07-27T03:47:35.851Z,10.65
2022-07-27T03:50:04.444Z,10.69
2022-07-27T03:52:31.950Z,10.62
2022-07-27T03:54:59.456Z,10.62
2022-07-27T03:57:28.304Z,10.62
2022-07-27T03:59:55.776Z,10.57
2022-07-27T04:02:23.282Z,10.57
2022-07-27T04:04:50.803Z,10.54
2022-07-27T04:07:18.485Z,10.53
2022-07-27T04:09:46.081Z,10.47
2022-07-27T04:12:17.438Z,10.46
2022-07-27T04:14:49.004Z,10.42
2022-07-27T04:17:54.069Z,10.43
2022-07-27T04:20:05.138Z,10.41
2022-07-27T04:22:32.577Z,10.38
2022-07-27T04:25:00.059Z,10.42
2022-07-27T04:27:27.693Z,10.42
2022-07-27T04:29:56.457Z,10.49
2022-07-27T04:32:23.921Z,10.32
2022-07-27T04:34:51.479Z,10.34
2022-07-27T04:37:18.963Z,10.27
2022-07-27T04:39:46.410Z,10.17
2022-07-27T04:42:13.876Z,10.36
2022-07-27T04:44:41.377Z,10.37
2022-07-27T04:47:10.184Z,10.41
2022-07-27T04:49:37.618Z,10.35
2022-07-27T04:52:05.646Z,10.30
2022-07-27T04:54:33.136Z,10.26
2022-07-27T04:57:00.595Z,10.32
2022-07-27T04:59:28.801Z,10.24
2022-07-27T05:01:56.506Z,10.15
2022-07-27T05:04:25.543Z,10.28
2022-07-27T05:06:53.055Z,10.23
2022-07-27T05:09:22.461Z,10.25
2022-07-27T05:11:51.463Z,10.35
2022-07-27T05:14:21.245Z,10.35
2022-07-27T05:16:49.240Z,10.14
2022-07-27T05:19:16.784Z,10.30
2022-07-27T05:21:45.731Z,10.49
2022-07-27T05:24:13.179Z,10.50
2022-07-27T05:26:40.635Z,10.49
2022-07-27T05:29:08.256Z,10.74
2022-07-27T05:31:35.895Z,10.71
2022-07-27T05:34:03.396Z,10.56
2022-07-27T05:36:31.132Z,10.75
2022-07-27T05:38:59.921Z,11.00
2022-07-27T05:41:27.654Z,11.23
2022-07-27T05:43:56.454Z,11.25
2022-07-27T05:46:24.892Z,11.29
2022-07-27T05:48:53.915Z,11.26
2022-07-27T05:51:21.419Z,11.44
2022-07-27T05:53:48.903Z,11.46
2022-07-27T05:56:17.717Z,11.65
2022-07-27T05:58:45.180Z,11.51
2022-07-27T06:01:12.803Z,11.57
2022-07-27T06:03:40.375Z,11.73
2022-07-27T06:06:25.359Z,11.80
2022-07-27T06:08:54.007Z,12.02
2022-07-27T06:11:22.863Z,11.78
2022-07-27T06:13:50.737Z,11.87
2022-07-27T06:16:18.814Z,11.87
2022-07-27T06:18:46.300Z,12.29
2022-07-27T06:21:13.889Z,12.36
2022-07-27T06:23:41.431Z,12.67
2022-07-27T06:26:09.032Z,12.62
2022-07-27T06:28:37.830Z,12.89
2022-07-27T06:31:06.161Z,12.17
2022-07-27T06:33:34.338Z,12.14
2022-07-27T06:36:02.693Z,12.36
2022-07-27T06:38:30.553Z,12.68
2022-07-27T06:40:58.368Z,12.93
2022-07-27T06:43:27.806Z,12.90
2022-07-27T06:45:58.107Z,13.33
2022-07-27T06:48:26.244Z,13.29
2022-07-27T06:50:55.200Z,13.36
2022-07-27T06:53:22.741Z,13.21
2022-07-27T06:55:50.608Z,13.00
2022-07-27T06:58:18.164Z,12.81
2022-07-27T07:00:47.329Z,13.14
2022-07-27T07:03:16.532Z,12.70
2022-07-27T07:05:46.359Z,12.62
2022-07-27T07:08:14.531Z,13.06
2022-07-27T07:10:43.572Z,12.61
2022-07-27T07:13:11.281Z,12.25
2022-07-27T07:15:40.164Z,12.13
2022-07-27T07:18:08.296Z,12.25
2022-07-27T07:20:38.111Z,12.02
2022-07-27T07:23:06.409Z,12.04
2022-07-27T07:25:34.864Z,11.98
2022-07-27T07:28:02.828Z,12.13
2022-07-27T07:30:30.788Z,12.45
2022-07-27T07:32:58.637Z,12.63
2022-07-27T07:35:27.089Z,12.52
2022-07-27T07:37:55.885Z,12.67
2022-07-27T07:43:11.209Z,12.63
2022-07-27T07:45:49.976Z,12.78
2022-07-27T07:48:19.635Z,12.41
2022-07-27T07:50:51.996Z,12.47
2022-07-27T07:53:23.236Z,12.58
2022-07-27T07:55:51.176Z,12.80
2022-07-27T07:58:18.936Z,12.86
2022-07-27T08:00:46.422Z,12.67
2022-07-27T08:03:14.019Z,12.61
2022-07-27T08:05:43.081Z,12.56
2022-07-27T08:08:10.599Z,12.91
2022-07-27T08:10:39.862Z,13.01
2022-07-27T08:13:07.339Z,13.25
2022-07-27T08:15:36.216Z,13.23
2022-07-27T08:18:04.823Z,13.41
2022-07-27T08:20:32.625Z,13.76
2022-07-27T08:23:00.404Z,14.26
2022-07-27T08:25:27.850Z,14.38
2022-07-27T08:27:56.658Z,14.51
2022-07-27T08:30:24.403Z,13.67
2022-07-27T08:32:54.731Z,13.93
2022-07-27T08:35:23.139Z,13.81
2022-07-27T08:37:51.240Z,14.08
2022-07-27T08:43:10.353Z,14.99
2022-07-27T08:45:39.109Z,14.06
2022-07-27T08:48:07.167Z,14.00
2022-07-27T08:50:35.308Z,13.84
2022-07-27T08:53:07.109Z,13.69
2022-07-27T08:55:36.861Z,14.09
2022-07-27T08:58:04.844Z,14.30
2022-07-27T09:00:34.982Z,14.74
2022-07-27T09:03:03.228Z,14.72
2022-07-27T09:05:37.002Z,14.92
2022-07-27T09:08:13.144Z,15.23
2022-07-27T09:10:41.809Z,15.02
2022-07-27T09:13:24.780Z,14.51
2022-07-27T09:16:16.866Z,14.25
2022-07-27T09:18:43.354Z,14.50
2022-07-27T09:21:16.107Z,14.78
2022-07-27T09:23:45.958Z,14.54
2022-07-27T09:26:31.734Z,14.92
2022-07-27T09:29:01.789Z,15.45
2022-07-27T09:31:31.407Z,15.79
2022-07-27T09:34:00.813Z,15.47
2022-07-27T09:36:30.092Z,15.51
2022-07-27T09:39:02.889Z,15.53
2022-07-27T09:41:41.724Z,14.98
2022-07-27T09:44:31.269Z,15.11
2022-07-27T09:46:58.065Z,14.84
2022-07-27T09:49:30.863Z,14.67
2022-07-27T09:52:01.285Z,15.12
2022-07-27T09:54:41.948Z,15.27
2022-07-27T09:57:09.881Z,15.76
2022-07-27T09:59:37.342Z,15.85
2022-07-27T10:02:06.634Z,15.79
2022-07-27T10:04:34.666Z,16.24
2022-07-27T10:07:04.667Z,15.97
2022-07-27T10:09:34.747Z,15.89
2022-07-27T10:12:04.390Z,16.19
2022-07-27T10:14:33.019Z,15.83
2022-07-27T10:17:01.198Z,15.90
2022-07-27T10:19:35.214Z,15.58
2022-07-27T10:22:02.812Z,16.24
2022-07-27T10:24:34.695Z,16.71
2022-07-27T10:27:19.446Z,16.52
2022-07-27T10:29:47.748Z,16.86
2022-07-27T10:32:24.779Z,17.53
2022-07-27T10:34:54.033Z,17.44
2022-07-27T10:37:26.685Z,16.16
2022-07-27T10:40:15.912Z,16.65
2022-07-27T10:42:46.095Z,16.19
2022-07-27T10:45:16.847Z,16.29
2022-07-27T10:47:47.159Z,16.13
2022-07-27T10:50:30.815Z,16.05
2022-07-27T10:53:01.888Z,16.56
2022-07-27T10:55:44.318Z,16.70
2022-07-27T10:58:47.497Z,16.81
2022-07-27T11:01:16.705Z,17.11
2022-07-27T11:03:52.236Z,16.90
2022-07-27T11:06:32.881Z,17.59
2022-07-27T11:11:50.149Z,17.04
2022-07-27T11:14:18.794Z,16.84
2022-07-27T11:16:55.693Z,17.49
2022-07-27T11:19:25.460Z,17.28
2022-07-27T11:21:54.321Z,17.36
2022-07-27T11:24:23.404Z,17.04
2022-07-27T11:26:52.225Z,17.27
2022-07-27T11:29:21.619Z,17.42
2022-07-27T11:31:57.198Z,18.07
2022-07-27T11:34:28.776Z,17.66
2022-07-27T11:36:58.413Z,17.15
2022-07-27T11:42:21.016Z,16.64
2022-07-27T11:44:49.837Z,17.25
2022-07-27T11:47:20.219Z,16.93
2022-07-27T11:49:47.892Z,17.24
2022-07-27T11:52:18.780Z,17.08
2022-07-27T11:54:52.106Z,16.93
2022-07-27T11:57:20.516Z,16.62
2022-07-27T11:59:48.061Z,16.72
2022-07-27T12:02:19.646Z,17.23
2022-07-27T12:04:49.540Z,17.50
2022-07-27T12:07:21.846Z,17.58
2022-07-27T12:09:54.277Z,16.77
2022-07-27T12:12:23.448Z,16.47
2022-07-27T12:14:54.023Z,16.34
2022-07-27T12:17:28.116Z,16.99
2022-07-27T12:19:58.725Z,17.49
2022-07-27T12:22:34.213Z,17.91
2022-07-27T12:25:15.911Z,18.24
2022-07-27T12:27:55.643Z,18.44
2022-07-27T12:30:31.036Z,17.85
2022-07-27T12:32:58.652Z,17.98
2022-07-27T12:35:31.545Z,18.35
2022-07-27T12:38:05.815Z,18.49
2022-07-27T12:40:34.657Z,18.17
2022-07-27T12:43:04.249Z,18.17
2022-07-27T12:45:33.951Z,18.61
2022-07-27T12:48:09.921Z,18.64
2022-07-27T12:50:38.175Z,18.19
2022-07-27T12:53:07.907Z,18.05
2022-07-27T12:55:35.864Z,18.01
2022-07-27T12:58:03.759Z,18.19
2022-07-27T13:00:34.080Z,18.76
2022-07-27T13:03:03.366Z,18.38
2022-07-27T13:05:31.455Z,18.48
2022-07-27T13:07:58.998Z,18.54
2022-07-27T13:10:28.785Z,17.90
2022-07-27T13:12:56.416Z,17.93
2022-07-27T13:15:23.847Z,18.23
2022-07-27T13:17:51.364Z,18.14
2022-07-27T13:20:19.369Z,18.31
2022-07-27T13:22:47.622Z,18.52
2022-07-27T13:25:17.465Z,18.33
2022-07-27T13:27:47.454Z,18.15
2022-07-27T13:30:16.990Z,18.30
2022-07-27T13:32:46.503Z,17.77
2022-07-27T13:35:14.664Z,18.04
2022-07-27T13:37:42.305Z,18.21
2022-07-27T13:40:10.887Z,18.41
2022-07-27T13:42:38.861Z,18.45
2022-07-27T13:45:10.994Z,19.02
2022-07-27T13:47:39.756Z,19.16
2022-07-27T13:50:13.307Z,18.64
2022-07-27T13:52:46.121Z,18.37
2022-07-27T13:55:14.585Z,18.16
2022-07-27T13:57:42.147Z,18.64
2022-07-27T14:00:12.582Z,19.18
2022-07-27T14:02:40.172Z,19.19
2022-07-27T14:05:10.148Z,19.04
2022-07-27T14:07:41.626Z,19.32
2022-07-27T14:10:28.822Z,19.48
2022-07-27T14:12:59.070Z,20.22
2022-07-27T14:15:28.217Z,19.60
2022-07-27T14:17:55.663Z,19.58
2022-07-27T14:20:23.151Z,19.50
2022-07-27T14:22:50.615Z,19.23
2022-07-27T14:25:18.117Z,19.09
2022-07-27T14:27:45.602Z,18.77
2022-07-27T14:30:16.209Z,18.41
2022-07-27T14:32:50.084Z,18.29
2022-07-27T14:35:18.146Z,18.01
2022-07-27T14:37:46.026Z,18.99
2022-07-27T14:40:15.355Z,19.46
2022-07-27T14:42:43.028Z,18.75
2022-07-27T14:45:11.528Z,18.49
2022-07-27T14:47:39.083Z,18.57
2022-07-27T14:50:09.475Z,18.70
2022-07-27T14:52:37.117Z,18.39
2022-07-27T14:55:05.400Z,17.79
2022-07-27T14:57:32.988Z,18.01
2022-07-27T15:00:00.465Z,18.27
2022-07-27T15:02:28.195Z,18.39
2022-07-27T15:04:55.683Z,18.74
2022-07-27T15:07:24.435Z,19.08
2022-07-27T15:09:51.902Z,19.71
2022-07-27T15:12:19.371Z,19.70
2022-07-27T15:14:46.855Z,20.04
2022-07-27T15:17:24.504Z,20.55
2022-07-27T15:19:52.108Z,19.28
2022-07-27T15:22:19.665Z,19.78
2022-07-27T15:24:48.484Z,18.92
2022-07-27T15:27:15.928Z,19.75
2022-07-27T15:29:43.544Z,19.58
2022-07-27T15:32:11.147Z,19.61
2022-07-27T15:34:38.917Z,19.59
2022-07-27T15:37:07.409Z,19.61
2022-07-27T15:39:36.315Z,19.35
2022-07-27T15:42:05.594Z,19.91
2022-07-27T15:44:33.569Z,19.53
2022-07-27T15:47:01.173Z,19.22
2022-07-27T15:49:28.870Z,19.60
2022-07-27T15:51:56.556Z,19.37
2022-07-27T15:54:24.392Z,19.42
2022-07-27T15:56:51.999Z,19.98
2022-07-27T15:59:20.792Z,20.94
2022-07-27T16:01:49.093Z,20.90
2022-07-27T16:04:16.854Z,19.63
2022-07-27T16:06:44.523Z,19.67
2022-07-27T16:09:12.257Z,19.69
2022-07-27T16:11:40.840Z,20.33
2022-07-27T16:14:08.334Z,18.89
2022-07-27T16:16:37.216Z,18.65
2022-07-27T16:19:12.811Z,18.77
2022-07-27T16:21:54.647Z,17.97
2022-07-27T16:24:23.727Z,17.78
2022-07-27T16:26:51.265Z,18.12
2022-07-27T16:29:18.812Z,18.15
2022-07-27T16:31:47.670Z,17.91
2022-07-27T16:34:15.172Z,17.70
2022-07-27T16:36:42.658Z,17.66
2022-07-27T16:39:10.407Z,17.39
2022-07-27T16:41:38.354Z,17.45
2022-07-27T16:44:06.269Z,17.46
2022-07-27T16:46:33.771Z,17.13
2022-07-27T16:49:02.626Z,17.46
2022-07-27T16:51:31.127Z,17.45
2022-07-27T16:53:58.604Z,17.52
2022-07-27T16:56:26.215Z,17.75
2022-07-27T16:58:53.650Z,17.78
2022-07-27T17:01:22.010Z,17.63
2022-07-27T17:03:54.282Z,17.34
2022-07-27T17:06:23.637Z,17.28
2022-07-27T17:08:51.147Z,17.44
2022-07-27T17:11:21.573Z,17.51
2022-07-27T17:13:50.310Z,17.52
2022-07-27T17:16:18.699Z,17.81
2022-07-27T17:18:47.054Z,17.80
2022-07-27T17:21:14.669Z,17.62
2022-07-27T17:23:44.896Z,18.08
2022-07-27T17:26:13.640Z,18.16
2022-07-27T17:28:42.147Z,18.14
2022-07-27T17:31:11.191Z,17.58
2022-07-27T17:33:39.761Z,17.46
2022-07-27T17:36:14.003Z,17.04
2022-07-27T17:38:44.418Z,16.83
2022-07-27T17:41:12.232Z,16.64
2022-07-27T17:43:39.754Z,16.56
2022-07-27T17:46:08.020Z,16.49
2022-07-27T17:48:35.647Z,16.73
2022-07-27T17:51:03.167Z,16.72
2022-07-27T17:53:30.764Z,16.62
2022-07-27T17:56:00.546Z,16.59
2022-07-27T17:58:30.428Z,16.66
2022-07-27T18:00:58.410Z,16.73
2022-07-27T18:03:25.944Z,16.40
2022-07-27T18:05:53.518Z,16.43
2022-07-27T18:08:21.093Z,16.44
2022-07-27T18:10:48.584Z,16.39
2022-07-27T18:13:17.555Z,16.38
2022-07-27T18:15:48.011Z,16.24
2022-07-27T18:18:16.436Z,16.23
2022-07-27T18:20:46.059Z,16.15
2022-07-27T18:23:14.040Z,16.17
2022-07-27T18:25:42.077Z,16.01
2022-07-27T18:28:09.630Z,15.92
2022-07-27T18:30:38.537Z,16.00
2022-07-27T18:33:06.365Z,16.07
2022-07-27T18:35:33.863Z,15.93
2022-07-27T18:38:01.358Z,15.87
2022-07-27T18:40:28.935Z,15.76
2022-07-27T18:42:56.788Z,15.71
2022-07-27T18:45:24.556Z,15.59
2022-07-27T18:48:04.089Z,15.53
2022-07-27T18:50:35.648Z,15.53
2022-07-27T18:53:06.238Z,15.56
2022-07-27T18:55:33.817Z,15.41
2022-07-27T18:58:01.288Z,15.39
2022-07-27T19:00:29.677Z,15.32
2022-07-27T19:02:59.356Z,15.30
2022-07-27T19:05:40.543Z,15.29
2022-07-27T19:08:11.373Z,15.26
2022-07-27T19:10:41.103Z,15.25
2022-07-27T19:13:08.970Z,15.15
2022-07-27T19:15:37.033Z,15.13
2022-07-27T19:18:04.929Z,15.07
2022-07-27T19:20:33.987Z,15.01
2022-07-27T19:23:02.111Z,14.93
2022-07-27T19:25:30.298Z,14.86
2022-07-27T19:27:59.775Z,14.76
2022-07-27T19:30:27.790Z,14.81
2022-07-27T19:32:56.285Z,14.79
2022-07-27T19:35:25.548Z,14.69
2022-07-27T19:37:54.402Z,14.67
2022-07-27T19:43:12.246Z,14.48
2022-07-27T19:45:39.839Z,14.45
2022-07-27T19:48:08.214Z,14.29
2022-07-27T19:50:35.850Z,14.21
2022-07-27T19:53:05.661Z,14.30
2022-07-27T19:55:33.214Z,14.18
2022-07-27T19:58:01.020Z,14.24
2022-07-27T20:00:28.557Z,13.99
2022-07-27T20:02:56.150Z,13.86
2022-07-27T20:05:24.025Z,13.97
2022-07-27T20:07:51.470Z,13.97
2022-07-27T20:10:21.558Z,14.07
2022-07-27T20:12:49.074Z,13.98
2022-07-27T20:15:16.654Z,13.88
2022-07-27T20:17:44.291Z,13.88
2022-07-27T20:20:12.731Z,13.89
2022-07-27T20:22:40.931Z,13.89
2022-07-27T20:25:10.868Z,13.87
2022-07-27T20:27:39.750Z,13.77
2022-07-27T20:30:08.878Z,13.66
2022-07-27T20:32:36.777Z,13.48
2022-07-27T20:35:05.272Z,13.41
2022-07-27T20:37:33.462Z,13.31
2022-07-27T20:40:01.216Z,13.24
2022-07-27T20:42:28.881Z,13.16
2022-07-27T20:44:57.797Z,13.06
2022-07-27T20:47:25.502Z,12.96
2022-07-27T20:49:52.989Z,12.88
2022-07-27T20:52:21.729Z,12.90
2022-07-27T20:54:49.164Z,12.71
2022-07-27T20:57:16.648Z,12.56
2022-07-27T20:59:44.095Z,12.39
2022-07-27T21:02:13.861Z,12.31
2022-07-27T21:04:41.535Z,12.17
2022-07-27T21:07:09.082Z,12.19
2022-07-27T21:09:37.238Z,12.24
2022-07-27T21:12:08.585Z,12.26
2022-07-27T21:14:36.105Z,12.23
2022-07-27T21:17:03.735Z,12.04
2022-07-27T21:19:32.737Z,11.88
2022-07-27T21:22:00.424Z,11.69
2022-07-27T21:24:28.855Z,11.81
2022-07-27T21:27:00.921Z,11.62
2022-07-27T21:29:32.221Z,11.63
2022-07-27T21:31:59.751Z,11.63
2022-07-27T21:34:27.520Z,11.38
2022-07-27T21:36:56.375Z,11.23
2022-07-27T21:39:24.906Z,11.13
2022-07-27T21:41:52.582Z,11.13
2022-07-27T21:44:20.081Z,11.08
2022-07-27T21:46:48.346Z,11.01
2022-07-27T21:49:16.006Z,10.94
2022-07-27T21:51:43.504Z,10.91
2022-07-27T21:54:12.471Z,10.91
2022-07-27T21:56:41.968Z,10.86
2022-07-27T21:59:10.711Z,10.82
2022-07-27T22:01:38.275Z,10.79
2022-07-27T22:04:06.478Z,10.73
2022-07-27T22:06:34.049Z,10.71
2022-07-27T22:09:01.974Z,10.69
2022-07-27T22:11:30.846Z,10.71
2022-07-27T22:13:58.307Z,10.71
2022-07-27T22:16:25.862Z,10.68
2022-07-27T22:18:53.670Z,10.63
2022-07-27T22:21:21.518Z,10.58
2022-07-27T22:23:49.251Z,10.57
2022-07-27T22:26:17.332Z,10.45
2022-07-27T22:28:46.190Z,10.66
2022-07-27T22:31:22.220Z,10.46
2022-07-27T22:33:50.934Z,10.39
2022-07-27T22:36:18.420Z,10.37
2022-07-27T22:38:46.242Z,10.30
2022-07-27T22:41:13.830Z,10.28
2022-07-27T22:43:41.571Z,10.18
2022-07-27T22:46:10.757Z,9.83
2022-07-27T22:48:38.869Z,9.85
2022-07-27T22:51:07.607Z,9.86
2022-07-27T22:53:35.118Z,9.81
2022-07-27T22:56:02.596Z,9.84
2022-07-27T22:58:30.082Z,9.87
2022-07-27T23:00:59.828Z,9.88
2022-07-27T23:03:28.896Z,9.78
2022-07-27T23:05:56.388Z,9.65
2022-07-27T23:08:23.866Z,9.58
2022-07-27T23:10:51.482Z,9.50
2022-07-27T23:13:20.255Z,9.54
2022-07-27T23:15:48.101Z,9.48
2022-07-27T23:18:17.347Z,9.58
2022-07-27T23:20:46.168Z,9.63
2022-07-27T23:23:16.335Z,9.62
2022-07-27T23:25:44.586Z,9.58
2022-07-27T23:28:12.286Z,9.59
2022-07-27T23:30:39.983Z,9.63
2022-07-27T23:33:07.565Z,9.74
2022-07-27T23:35:35.075Z,9.77
2022-07-27T23:38:04.110Z,9.83
2022-07-27T23:40:31.946Z,9.76
2022-07-27T23:42:59.419Z,9.75
2022-07-27T23:45:27.347Z,9.83
2022-07-27T23:47:55.173Z,9.93
2022-07-27T23:50:22.910Z,9.97
2022-07-27T23:52:50.702Z,10.05
2022-07-27T23:55:19.568Z,10.02
2022-07-27T23:57:47.347Z,10.09
